sensor_id;sensor_type;location;lat;lon;timestamp;P1;durP1;ratioP1;P2;durP2;ratioP2
77822;SDS011;67013;49.730;17.292;2024-03-29T00:01:20;0.50;;;0.50;;
77822;SDS011;67013;49.730;17.292;2024-03-29T00:03:49;0.40;;;0.40;;
77822;SDS011;67013;49.730;17.292;2024-03-29T00:06:19;0.50;;;0.50;;
77822;SDS011;67013;49.730;17.292;2024-03-29T00:08:48;0.50;;;0.50;;
77822;SDS011;67013;49.730;17.292;2024-03-29T00:11:19;0.60;;;0.40;;
77822;SDS011;67013;49.730;17.292;2024-03-29T00:13:48;0.40;;;0.40;;
77822;SDS011;67013;49.730;17.292;2024-03-29T00:16:17;0.40;;;0.40;;
77822;SDS011;67013;49.730;17.292;2024-03-29T00:18:48;0.50;;;0.50;;
77822;SDS011;67013;49.730;17.292;2024-03-29T00:21:17;0.40;;;0.40;;
77822;SDS011;67013;49.730;17.292;2024-03-29T00:23:47;0.40;;;0.40;;
77822;SDS011;67013;49.730;17.292;2024-03-29T00:26:17;0.40;;;0.40;;
77822;SDS011;67013;49.730;17.292;2024-03-29T00:28:49;0.50;;;0.40;;
77822;SDS011;67013;49.730;17.292;2024-03-29T00:31:18;0.60;;;0.50;;
77822;SDS011;67013;49.730;17.292;2024-03-29T00:33:50;0.40;;;0.40;;
77822;SDS011;67013;49.730;17.292;2024-03-29T00:36:19;0.50;;;0.50;;
77822;SDS011;67013;49.730;17.292;2024-03-29T00:38:48;0.60;;;0.50;;
77822;SDS011;67013;49.730;17.292;2024-03-29T00:41:17;0.60;;;0.60;;
77822;SDS011;67013;49.730;17.292;2024-03-29T00:43:46;0.40;;;0.40;;
77822;SDS011;67013;49.730;17.292;2024-03-29T00:46:16;0.60;;;0.60;;
77822;SDS011;67013;49.730;17.292;2024-03-29T00:48:45;0.40;;;0.40;;
77822;SDS011;67013;49.730;17.292;2024-03-29T00:51:14;0.60;;;0.50;;
77822;SDS011;67013;49.730;17.292;2024-03-29T00:53:43;0.40;;;0.40;;
77822;SDS011;67013;49.730;17.292;2024-03-29T00:56:12;0.50;;;0.50;;
77822;SDS011;67013;49.730;17.292;2024-03-29T00:58:42;0.40;;;0.40;;
77822;SDS011;67013;49.730;17.292;2024-03-29T01:01:11;0.50;;;0.50;;
77822;SDS011;67013;49.730;17.292;2024-03-29T01:03:40;0.60;;;0.50;;
77822;SDS011;67013;49.730;17.292;2024-03-29T01:06:09;0.60;;;0.60;;
77822;SDS011;67013;49.730;17.292;2024-03-29T01:08:38;0.50;;;0.50;;
77822;SDS011;67013;49.730;17.292;2024-03-29T01:11:08;0.50;;;0.50;;
77822;SDS011;67013;49.730;17.292;2024-03-29T01:13:37;0.50;;;0.50;;
77822;SDS011;67013;49.730;17.292;2024-03-29T01:16:06;0.60;;;0.60;;
77822;SDS011;67013;49.730;17.292;2024-03-29T01:18:35;0.40;;;0.40;;
77822;SDS011;67013;49.730;17.292;2024-03-29T01:21:05;0.50;;;0.50;;
77822;SDS011;67013;49.730;17.292;2024-03-29T01:23:34;0.60;;;0.50;;
77822;SDS011;67013;49.730;17.292;2024-03-29T01:26:04;0.50;;;0.50;;
77822;SDS011;67013;49.730;17.292;2024-03-29T01:28:34;0.30;;;0.30;;
77822;SDS011;67013;49.730;17.292;2024-03-29T01:31:04;0.60;;;0.60;;
77822;SDS011;67013;49.730;17.292;2024-03-29T01:33:34;0.50;;;0.50;;
77822;SDS011;67013;49.730;17.292;2024-03-29T01:36:04;0.50;;;0.50;;
77822;SDS011;67013;49.730;17.292;2024-03-29T01:38:34;0.70;;;0.50;;
77822;SDS011;67013;49.730;17.292;2024-03-29T01:41:03;0.40;;;0.40;;
77822;SDS011;67013;49.730;17.292;2024-03-29T01:43:33;1.00;;;0.70;;
77822;SDS011;67013;49.730;17.292;2024-03-29T01:46:02;0.50;;;0.50;;
77822;SDS011;67013;49.730;17.292;2024-03-29T01:48:34;0.40;;;0.40;;
77822;SDS011;67013;49.730;17.292;2024-03-29T01:51:04;0.70;;;0.50;;
77822;SDS011;67013;49.730;17.292;2024-03-29T01:53:33;0.50;;;0.50;;
77822;SDS011;67013;49.730;17.292;2024-03-29T01:56:03;0.70;;;0.70;;
77822;SDS011;67013;49.730;17.292;2024-03-29T01:58:34;0.60;;;0.50;;
77822;SDS011;67013;49.730;17.292;2024-03-29T02:01:04;0.40;;;0.40;;
77822;SDS011;67013;49.730;17.292;2024-03-29T02:03:34;0.40;;;0.40;;
77822;SDS011;67013;49.730;17.292;2024-03-29T02:06:04;0.50;;;0.50;;
77822;SDS011;67013;49.730;17.292;2024-03-29T02:08:34;0.60;;;0.60;;
77822;SDS011;67013;49.730;17.292;2024-03-29T02:11:03;0.50;;;0.50;;
77822;SDS011;67013;49.730;17.292;2024-03-29T02:13:33;0.70;;;0.50;;
77822;SDS011;67013;49.730;17.292;2024-03-29T02:16:04;0.40;;;0.40;;
77822;SDS011;67013;49.730;17.292;2024-03-29T02:18:33;0.60;;;0.60;;
77822;SDS011;67013;49.730;17.292;2024-03-29T02:21:02;0.40;;;0.40;;
77822;SDS011;67013;49.730;17.292;2024-03-29T02:23:32;0.40;;;0.40;;
77822;SDS011;67013;49.730;17.292;2024-03-29T02:26:04;0.70;;;0.50;;
77822;SDS011;67013;49.730;17.292;2024-03-29T02:28:33;0.80;;;0.60;;
77822;SDS011;67013;49.730;17.292;2024-03-29T02:31:03;0.40;;;0.40;;
77822;SDS011;67013;49.730;17.292;2024-03-29T02:33:32;0.60;;;0.50;;
77822;SDS011;67013;49.730;17.292;2024-03-29T02:36:01;0.50;;;0.50;;
77822;SDS011;67013;49.730;17.292;2024-03-29T02:38:31;0.50;;;0.50;;
77822;SDS011;67013;49.730;17.292;2024-03-29T02:41:00;0.50;;;0.50;;
77822;SDS011;67013;49.730;17.292;2024-03-29T02:43:31;0.60;;;0.60;;
77822;SDS011;67013;49.730;17.292;2024-03-29T02:46:00;0.80;;;0.60;;
77822;SDS011;67013;49.730;17.292;2024-03-29T02:48:30;0.50;;;0.50;;
77822;SDS011;67013;49.730;17.292;2024-03-29T02:50:59;0.30;;;0.30;;
77822;SDS011;67013;49.730;17.292;2024-03-29T02:53:28;0.70;;;0.50;;
77822;SDS011;67013;49.730;17.292;2024-03-29T02:55:57;0.60;;;0.60;;
77822;SDS011;67013;49.730;17.292;2024-03-29T02:58:26;0.50;;;0.50;;
77822;SDS011;67013;49.730;17.292;2024-03-29T03:00:55;0.50;;;0.50;;
77822;SDS011;67013;49.730;17.292;2024-03-29T03:03:26;0.70;;;0.60;;
77822;SDS011;67013;49.730;17.292;2024-03-29T03:05:55;0.80;;;0.70;;
77822;SDS011;67013;49.730;17.292;2024-03-29T03:08:24;0.80;;;0.60;;
77822;SDS011;67013;49.730;17.292;2024-03-29T03:11:11;0.80;;;0.60;;
77822;SDS011;67013;49.730;17.292;2024-03-29T03:13:40;0.70;;;0.60;;
77822;SDS011;67013;49.730;17.292;2024-03-29T03:16:09;0.70;;;0.60;;
77822;SDS011;67013;49.730;17.292;2024-03-29T03:18:38;0.60;;;0.50;;
77822;SDS011;67013;49.730;17.292;2024-03-29T03:21:07;0.60;;;0.50;;
77822;SDS011;67013;49.730;17.292;2024-03-29T03:23:36;0.50;;;0.50;;
77822;SDS011;67013;49.730;17.292;2024-03-29T03:26:06;0.70;;;0.60;;
77822;SDS011;67013;49.730;17.292;2024-03-29T03:28:35;0.90;;;0.70;;
77822;SDS011;67013;49.730;17.292;2024-03-29T03:31:04;0.50;;;0.40;;
77822;SDS011;67013;49.730;17.292;2024-03-29T03:33:35;0.60;;;0.50;;
77822;SDS011;67013;49.730;17.292;2024-03-29T03:36:05;0.50;;;0.40;;
77822;SDS011;67013;49.730;17.292;2024-03-29T03:38:34;0.40;;;0.40;;
77822;SDS011;67013;49.730;17.292;2024-03-29T03:41:06;0.50;;;0.50;;
77822;SDS011;67013;49.730;17.292;2024-03-29T03:43:35;0.60;;;0.60;;
77822;SDS011;67013;49.730;17.292;2024-03-29T03:46:05;0.50;;;0.50;;
77822;SDS011;67013;49.730;17.292;2024-03-29T03:48:34;0.70;;;0.60;;
77822;SDS011;67013;49.730;17.292;2024-03-29T03:51:04;0.60;;;0.60;;
77822;SDS011;67013;49.730;17.292;2024-03-29T03:53:33;0.30;;;0.30;;
77822;SDS011;67013;49.730;17.292;2024-03-29T03:56:02;0.70;;;0.60;;
77822;SDS011;67013;49.730;17.292;2024-03-29T03:58:32;0.40;;;0.40;;
77822;SDS011;67013;49.730;17.292;2024-03-29T04:01:04;0.50;;;0.50;;
77822;SDS011;67013;49.730;17.292;2024-03-29T04:03:33;0.60;;;0.60;;
77822;SDS011;67013;49.730;17.292;2024-03-29T04:06:04;0.90;;;0.60;;
77822;SDS011;67013;49.730;17.292;2024-03-29T04:08:34;0.50;;;0.50;;
77822;SDS011;67013;49.730;17.292;2024-03-29T04:11:03;0.80;;;0.60;;
77822;SDS011;67013;49.730;17.292;2024-03-29T04:13:33;0.80;;;0.60;;
77822;SDS011;67013;49.730;17.292;2024-03-29T04:16:03;0.80;;;0.60;;
77822;SDS011;67013;49.730;17.292;2024-03-29T04:18:33;0.60;;;0.60;;
77822;SDS011;67013;49.730;17.292;2024-03-29T04:21:03;0.60;;;0.60;;
77822;SDS011;67013;49.730;17.292;2024-03-29T04:23:32;0.80;;;0.60;;
77822;SDS011;67013;49.730;17.292;2024-03-29T04:26:01;0.60;;;0.50;;
77822;SDS011;67013;49.730;17.292;2024-03-29T04:28:31;0.60;;;0.50;;
77822;SDS011;67013;49.730;17.292;2024-03-29T04:31:00;0.50;;;0.50;;
77822;SDS011;67013;49.730;17.292;2024-03-29T04:33:30;0.90;;;0.70;;
77822;SDS011;67013;49.730;17.292;2024-03-29T04:36:00;0.50;;;0.40;;
77822;SDS011;67013;49.730;17.292;2024-03-29T04:38:31;0.60;;;0.60;;
77822;SDS011;67013;49.730;17.292;2024-03-29T04:41:00;0.70;;;0.60;;
77822;SDS011;67013;49.730;17.292;2024-03-29T04:43:29;0.70;;;0.60;;
77822;SDS011;67013;49.730;17.292;2024-03-29T04:46:09;0.70;;;0.60;;
77822;SDS011;67013;49.730;17.292;2024-03-29T04:48:41;0.30;;;0.30;;
77822;SDS011;67013;49.730;17.292;2024-03-29T04:51:12;0.70;;;0.60;;
77822;SDS011;67013;49.730;17.292;2024-03-29T04:53:41;0.70;;;0.50;;
77822;SDS011;67013;49.730;17.292;2024-03-29T04:56:11;0.50;;;0.50;;
77822;SDS011;67013;49.730;17.292;2024-03-29T04:58:40;0.90;;;0.70;;
77822;SDS011;67013;49.730;17.292;2024-03-29T05:01:09;0.40;;;0.40;;
77822;SDS011;67013;49.730;17.292;2024-03-29T05:03:38;0.80;;;0.60;;
77822;SDS011;67013;49.730;17.292;2024-03-29T05:06:07;0.60;;;0.50;;
77822;SDS011;67013;49.730;17.292;2024-03-29T05:08:36;0.80;;;0.60;;
77822;SDS011;67013;49.730;17.292;2024-03-29T05:11:05;0.60;;;0.60;;
77822;SDS011;67013;49.730;17.292;2024-03-29T05:13:34;0.80;;;0.60;;
77822;SDS011;67013;49.730;17.292;2024-03-29T05:16:05;0.80;;;0.60;;
77822;SDS011;67013;49.730;17.292;2024-03-29T05:18:35;0.80;;;0.60;;
77822;SDS011;67013;49.730;17.292;2024-03-29T05:21:05;0.50;;;0.50;;
77822;SDS011;67013;49.730;17.292;2024-03-29T05:23:35;0.50;;;0.50;;
77822;SDS011;67013;49.730;17.292;2024-03-29T05:26:05;0.50;;;0.50;;
77822;SDS011;67013;49.730;17.292;2024-03-29T05:28:34;0.70;;;0.60;;
77822;SDS011;67013;49.730;17.292;2024-03-29T05:31:10;0.60;;;0.50;;
77822;SDS011;67013;49.730;17.292;2024-03-29T05:33:41;0.40;;;0.40;;
77822;SDS011;67013;49.730;17.292;2024-03-29T05:36:12;0.60;;;0.50;;
77822;SDS011;67013;49.730;17.292;2024-03-29T05:38:41;0.30;;;0.30;;
77822;SDS011;67013;49.730;17.292;2024-03-29T05:41:11;0.40;;;0.40;;
77822;SDS011;67013;49.730;17.292;2024-03-29T05:43:40;0.30;;;0.30;;
77822;SDS011;67013;49.730;17.292;2024-03-29T05:46:09;0.40;;;0.40;;
77822;SDS011;67013;49.730;17.292;2024-03-29T05:48:38;0.30;;;0.30;;
77822;SDS011;67013;49.730;17.292;2024-03-29T05:51:07;0.40;;;0.40;;
77822;SDS011;67013;49.730;17.292;2024-03-29T05:53:37;0.40;;;0.40;;
77822;SDS011;67013;49.730;17.292;2024-03-29T05:56:06;0.40;;;0.40;;
77822;SDS011;67013;49.730;17.292;2024-03-29T05:58:36;0.30;;;0.30;;
77822;SDS011;67013;49.730;17.292;2024-03-29T06:01:05;0.30;;;0.30;;
77822;SDS011;67013;49.730;17.292;2024-03-29T06:03:34;0.30;;;0.30;;
77822;SDS011;67013;49.730;17.292;2024-03-29T06:06:03;0.20;;;0.20;;
77822;SDS011;67013;49.730;17.292;2024-03-29T06:08:36;0.30;;;0.30;;
77822;SDS011;67013;49.730;17.292;2024-03-29T06:11:05;0.20;;;0.20;;
77822;SDS011;67013;49.730;17.292;2024-03-29T06:13:34;0.30;;;0.30;;
77822;SDS011;67013;49.730;17.292;2024-03-29T06:16:18;0.20;;;0.20;;
77822;SDS011;67013;49.730;17.292;2024-03-29T06:19:06;0.30;;;0.30;;
77822;SDS011;67013;49.730;17.292;2024-03-29T06:21:35;0.30;;;0.30;;
77822;SDS011;67013;49.730;17.292;2024-03-29T06:24:06;0.20;;;0.20;;
77822;SDS011;67013;49.730;17.292;2024-03-29T06:26:38;0.10;;;0.10;;
77822;SDS011;67013;49.730;17.292;2024-03-29T06:29:08;0.30;;;0.30;;
77822;SDS011;67013;49.730;17.292;2024-03-29T06:31:37;0.30;;;0.30;;
77822;SDS011;67013;49.730;17.292;2024-03-29T06:34:06;0.30;;;0.30;;
77822;SDS011;67013;49.730;17.292;2024-03-29T06:36:35;0.30;;;0.30;;
77822;SDS011;67013;49.730;17.292;2024-03-29T06:39:05;0.30;;;0.30;;
77822;SDS011;67013;49.730;17.292;2024-03-29T06:41:35;0.30;;;0.30;;
77822;SDS011;67013;49.730;17.292;2024-03-29T06:44:04;0.30;;;0.30;;
77822;SDS011;67013;49.730;17.292;2024-03-29T06:46:33;0.30;;;0.30;;
77822;SDS011;67013;49.730;17.292;2024-03-29T06:49:03;0.30;;;0.30;;
77822;SDS011;67013;49.730;17.292;2024-03-29T06:51:32;0.20;;;0.20;;
77822;SDS011;67013;49.730;17.292;2024-03-29T06:54:01;0.30;;;0.30;;
77822;SDS011;67013;49.730;17.292;2024-03-29T06:56:31;0.30;;;0.30;;
77822;SDS011;67013;49.730;17.292;2024-03-29T06:59:00;0.30;;;0.30;;
77822;SDS011;67013;49.730;17.292;2024-03-29T07:01:29;0.30;;;0.30;;
77822;SDS011;67013;49.730;17.292;2024-03-29T07:03:58;0.20;;;0.20;;
77822;SDS011;67013;49.730;17.292;2024-03-29T07:06:27;0.30;;;0.30;;
77822;SDS011;67013;49.730;17.292;2024-03-29T07:08:56;0.30;;;0.30;;
77822;SDS011;67013;49.730;17.292;2024-03-29T07:11:25;0.30;;;0.30;;
77822;SDS011;67013;49.730;17.292;2024-03-29T07:13:55;0.30;;;0.30;;
77822;SDS011;67013;49.730;17.292;2024-03-29T07:16:24;0.20;;;0.20;;
77822;SDS011;67013;49.730;17.292;2024-03-29T07:18:53;0.30;;;0.30;;
77822;SDS011;67013;49.730;17.292;2024-03-29T07:21:22;0.20;;;0.20;;
77822;SDS011;67013;49.730;17.292;2024-03-29T07:23:52;0.30;;;0.30;;
77822;SDS011;67013;49.730;17.292;2024-03-29T07:26:21;0.30;;;0.30;;
77822;SDS011;67013;49.730;17.292;2024-03-29T07:28:51;0.20;;;0.20;;
77822;SDS011;67013;49.730;17.292;2024-03-29T07:31:20;0.30;;;0.30;;
77822;SDS011;67013;49.730;17.292;2024-03-29T07:33:49;0.30;;;0.30;;
77822;SDS011;67013;49.730;17.292;2024-03-29T07:36:18;0.40;;;0.40;;
77822;SDS011;67013;49.730;17.292;2024-03-29T07:38:49;0.40;;;0.40;;
77822;SDS011;67013;49.730;17.292;2024-03-29T07:41:18;0.40;;;0.40;;
77822;SDS011;67013;49.730;17.292;2024-03-29T07:43:52;0.30;;;0.30;;
77822;SDS011;67013;49.730;17.292;2024-03-29T07:46:23;0.40;;;0.40;;
77822;SDS011;67013;49.730;17.292;2024-03-29T07:48:54;0.30;;;0.30;;
77822;SDS011;67013;49.730;17.292;2024-03-29T07:51:24;0.30;;;0.30;;
77822;SDS011;67013;49.730;17.292;2024-03-29T07:53:53;0.30;;;0.30;;
77822;SDS011;67013;49.730;17.292;2024-03-29T07:56:22;0.40;;;0.40;;
77822;SDS011;67013;49.730;17.292;2024-03-29T07:58:53;0.40;;;0.40;;
77822;SDS011;67013;49.730;17.292;2024-03-29T08:01:23;0.30;;;0.30;;
77822;SDS011;67013;49.730;17.292;2024-03-29T08:03:52;0.40;;;0.40;;
77822;SDS011;67013;49.730;17.292;2024-03-29T08:06:21;0.30;;;0.30;;
77822;SDS011;67013;49.730;17.292;2024-03-29T08:08:51;0.30;;;0.30;;
77822;SDS011;67013;49.730;17.292;2024-03-29T08:11:20;0.30;;;0.30;;
77822;SDS011;67013;49.730;17.292;2024-03-29T08:13:49;0.40;;;0.40;;
77822;SDS011;67013;49.730;17.292;2024-03-29T08:16:18;0.30;;;0.30;;
77822;SDS011;67013;49.730;17.292;2024-03-29T08:18:47;0.30;;;0.30;;
77822;SDS011;67013;49.730;17.292;2024-03-29T08:21:16;0.20;;;0.20;;
77822;SDS011;67013;49.730;17.292;2024-03-29T08:23:46;0.40;;;0.40;;
77822;SDS011;67013;49.730;17.292;2024-03-29T08:26:17;0.20;;;0.20;;
77822;SDS011;67013;49.730;17.292;2024-03-29T08:28:46;0.40;;;0.40;;
77822;SDS011;67013;49.730;17.292;2024-03-29T08:31:15;0.50;;;0.50;;
77822;SDS011;67013;49.730;17.292;2024-03-29T08:33:45;0.40;;;0.40;;
77822;SDS011;67013;49.730;17.292;2024-03-29T08:36:15;0.40;;;0.40;;
77822;SDS011;67013;49.730;17.292;2024-03-29T08:38:45;0.50;;;0.40;;
77822;SDS011;67013;49.730;17.292;2024-03-29T08:41:14;0.30;;;0.30;;
77822;SDS011;67013;49.730;17.292;2024-03-29T08:43:43;0.20;;;0.20;;
77822;SDS011;67013;49.730;17.292;2024-03-29T08:46:12;0.40;;;0.40;;
77822;SDS011;67013;49.730;17.292;2024-03-29T08:48:41;0.30;;;0.30;;
77822;SDS011;67013;49.730;17.292;2024-03-29T08:51:11;0.40;;;0.40;;
77822;SDS011;67013;49.730;17.292;2024-03-29T08:53:41;0.40;;;0.40;;
77822;SDS011;67013;49.730;17.292;2024-03-29T08:56:10;0.30;;;0.30;;
77822;SDS011;67013;49.730;17.292;2024-03-29T08:58:39;0.20;;;0.20;;
77822;SDS011;67013;49.730;17.292;2024-03-29T09:01:09;0.40;;;0.40;;
77822;SDS011;67013;49.730;17.292;2024-03-29T09:03:41;0.20;;;0.20;;
77822;SDS011;67013;49.730;17.292;2024-03-29T09:06:11;0.30;;;0.30;;
77822;SDS011;67013;49.730;17.292;2024-03-29T09:08:41;0.30;;;0.30;;
77822;SDS011;67013;49.730;17.292;2024-03-29T09:11:10;0.30;;;0.30;;
77822;SDS011;67013;49.730;17.292;2024-03-29T09:13:39;0.20;;;0.20;;
77822;SDS011;67013;49.730;17.292;2024-03-29T09:16:08;0.10;;;0.10;;
77822;SDS011;67013;49.730;17.292;2024-03-29T09:18:37;0.30;;;0.30;;
77822;SDS011;67013;49.730;17.292;2024-03-29T09:21:06;0.30;;;0.30;;
77822;SDS011;67013;49.730;17.292;2024-03-29T09:23:37;0.40;;;0.30;;
77822;SDS011;67013;49.730;17.292;2024-03-29T09:26:08;0.20;;;0.20;;
77822;SDS011;67013;49.730;17.292;2024-03-29T09:28:38;0.30;;;0.30;;
77822;SDS011;67013;49.730;17.292;2024-03-29T09:31:08;0.30;;;0.30;;
77822;SDS011;67013;49.730;17.292;2024-03-29T09:33:37;0.30;;;0.30;;
77822;SDS011;67013;49.730;17.292;2024-03-29T09:36:07;0.40;;;0.40;;
77822;SDS011;67013;49.730;17.292;2024-03-29T09:38:38;0.20;;;0.20;;
77822;SDS011;67013;49.730;17.292;2024-03-29T09:41:10;0.20;;;0.20;;
77822;SDS011;67013;49.730;17.292;2024-03-29T09:43:42;0.30;;;0.30;;
77822;SDS011;67013;49.730;17.292;2024-03-29T09:46:12;0.20;;;0.20;;
77822;SDS011;67013;49.730;17.292;2024-03-29T09:48:43;0.20;;;0.20;;
77822;SDS011;67013;49.730;17.292;2024-03-29T09:51:14;0.40;;;0.40;;
77822;SDS011;67013;49.730;17.292;2024-03-29T09:53:43;0.30;;;0.30;;
77822;SDS011;67013;49.730;17.292;2024-03-29T09:56:13;0.20;;;0.20;;
77822;SDS011;67013;49.730;17.292;2024-03-29T09:58:42;0.20;;;0.20;;
77822;SDS011;67013;49.730;17.292;2024-03-29T10:01:11;0.20;;;0.20;;
77822;SDS011;67013;49.730;17.292;2024-03-29T10:03:40;0.30;;;0.30;;
77822;SDS011;67013;49.730;17.292;2024-03-29T10:06:12;0.30;;;0.30;;
77822;SDS011;67013;49.730;17.292;2024-03-29T10:08:44;0.20;;;0.20;;
77822;SDS011;67013;49.730;17.292;2024-03-29T10:11:13;0.20;;;0.20;;
77822;SDS011;67013;49.730;17.292;2024-03-29T10:13:45;0.40;;;0.40;;
77822;SDS011;67013;49.730;17.292;2024-03-29T10:16:14;0.30;;;0.30;;
77822;SDS011;67013;49.730;17.292;2024-03-29T10:18:48;0.30;;;0.30;;
77822;SDS011;67013;49.730;17.292;2024-03-29T10:21:17;0.30;;;0.30;;
77822;SDS011;67013;49.730;17.292;2024-03-29T10:23:52;0.30;;;0.30;;
77822;SDS011;67013;49.730;17.292;2024-03-29T10:26:21;0.20;;;0.20;;
77822;SDS011;67013;49.730;17.292;2024-03-29T10:28:50;0.10;;;0.10;;
77822;SDS011;67013;49.730;17.292;2024-03-29T10:31:21;0.30;;;0.30;;
77822;SDS011;67013;49.730;17.292;2024-03-29T10:33:50;0.20;;;0.20;;
77822;SDS011;67013;49.730;17.292;2024-03-29T10:36:21;0.30;;;0.30;;
77822;SDS011;67013;49.730;17.292;2024-03-29T10:38:53;0.40;;;0.40;;
77822;SDS011;67013;49.730;17.292;2024-03-29T10:41:22;0.10;;;0.10;;
77822;SDS011;67013;49.730;17.292;2024-03-29T10:43:52;0.30;;;0.30;;
77822;SDS011;67013;49.730;17.292;2024-03-29T10:46:24;0.30;;;0.30;;
77822;SDS011;67013;49.730;17.292;2024-03-29T10:48:54;0.30;;;0.30;;
77822;SDS011;67013;49.730;17.292;2024-03-29T10:51:24;0.10;;;0.10;;
77822;SDS011;67013;49.730;17.292;2024-03-29T10:53:54;0.30;;;0.30;;
77822;SDS011;67013;49.730;17.292;2024-03-29T10:56:27;0.40;;;0.40;;
77822;SDS011;67013;49.730;17.292;2024-03-29T10:58:57;0.30;;;0.30;;
77822;SDS011;67013;49.730;17.292;2024-03-29T11:01:32;0.30;;;0.30;;
77822;SDS011;67013;49.730;17.292;2024-03-29T11:04:04;0.30;;;0.30;;
77822;SDS011;67013;49.730;17.292;2024-03-29T11:06:40;0.30;;;0.30;;
77822;SDS011;67013;49.730;17.292;2024-03-29T11:09:12;0.20;;;0.20;;
77822;SDS011;67013;49.730;17.292;2024-03-29T11:11:43;0.20;;;0.20;;
77822;SDS011;67013;49.730;17.292;2024-03-29T11:14:18;0.10;;;0.10;;
77822;SDS011;67013;49.730;17.292;2024-03-29T11:17:07;0.30;;;0.30;;
77822;SDS011;67013;49.730;17.292;2024-03-29T11:19:38;0.20;;;0.20;;
77822;SDS011;67013;49.730;17.292;2024-03-29T11:22:08;0.40;;;0.40;;
77822;SDS011;67013;49.730;17.292;2024-03-29T11:24:39;0.20;;;0.20;;
77822;SDS011;67013;49.730;17.292;2024-03-29T11:27:09;0.30;;;0.30;;
77822;SDS011;67013;49.730;17.292;2024-03-29T11:29:41;0.30;;;0.30;;
77822;SDS011;67013;49.730;17.292;2024-03-29T11:32:12;0.20;;;0.20;;
77822;SDS011;67013;49.730;17.292;2024-03-29T11:34:45;0.20;;;0.20;;
77822;SDS011;67013;49.730;17.292;2024-03-29T11:37:14;0.30;;;0.30;;
77822;SDS011;67013;49.730;17.292;2024-03-29T11:39:47;0.20;;;0.20;;
77822;SDS011;67013;49.730;17.292;2024-03-29T11:42:16;0.30;;;0.30;;
77822;SDS011;67013;49.730;17.292;2024-03-29T11:44:45;0.40;;;0.40;;
77822;SDS011;67013;49.730;17.292;2024-03-29T11:47:15;0.20;;;0.20;;
77822;SDS011;67013;49.730;17.292;2024-03-29T11:49:54;0.30;;;0.30;;
77822;SDS011;67013;49.730;17.292;2024-03-29T11:52:25;0.30;;;0.30;;
77822;SDS011;67013;49.730;17.292;2024-03-29T11:54:55;0.30;;;0.30;;
77822;SDS011;67013;49.730;17.292;2024-03-29T11:59:54;0.40;;;0.40;;
77822;SDS011;67013;49.730;17.292;2024-03-29T12:02:23;0.30;;;0.30;;
77822;SDS011;67013;49.730;17.292;2024-03-29T12:04:54;0.30;;;0.30;;
77822;SDS011;67013;49.730;17.292;2024-03-29T12:07:23;0.30;;;0.30;;
77822;SDS011;67013;49.730;17.292;2024-03-29T12:09:53;0.40;;;0.40;;
77822;SDS011;67013;49.730;17.292;2024-03-29T12:12:22;0.20;;;0.20;;
77822;SDS011;67013;49.730;17.292;2024-03-29T12:14:51;0.30;;;0.30;;
77822;SDS011;67013;49.730;17.292;2024-03-29T12:17:22;0.30;;;0.30;;
77822;SDS011;67013;49.730;17.292;2024-03-29T12:19:51;0.30;;;0.30;;
77822;SDS011;67013;49.730;17.292;2024-03-29T12:22:31;0.20;;;0.20;;
77822;SDS011;67013;49.730;17.292;2024-03-29T12:25:01;0.20;;;0.20;;
77822;SDS011;67013;49.730;17.292;2024-03-29T12:27:32;0.30;;;0.30;;
77822;SDS011;67013;49.730;17.292;2024-03-29T12:30:01;0.30;;;0.30;;
77822;SDS011;67013;49.730;17.292;2024-03-29T12:32:32;0.20;;;0.20;;
77822;SDS011;67013;49.730;17.292;2024-03-29T12:35:08;0.20;;;0.20;;
77822;SDS011;67013;49.730;17.292;2024-03-29T12:37:46;0.30;;;0.30;;
77822;SDS011;67013;49.730;17.292;2024-03-29T12:40:17;0.40;;;0.40;;
77822;SDS011;67013;49.730;17.292;2024-03-29T12:42:49;0.30;;;0.30;;
77822;SDS011;67013;49.730;17.292;2024-03-29T12:45:19;0.20;;;0.20;;
77822;SDS011;67013;49.730;17.292;2024-03-29T12:47:49;0.30;;;0.30;;
77822;SDS011;67013;49.730;17.292;2024-03-29T12:50:24;0.30;;;0.30;;
77822;SDS011;67013;49.730;17.292;2024-03-29T12:52:56;0.40;;;0.40;;
77822;SDS011;67013;49.730;17.292;2024-03-29T12:55:27;0.30;;;0.30;;
77822;SDS011;67013;49.730;17.292;2024-03-29T12:57:58;0.30;;;0.30;;
77822;SDS011;67013;49.730;17.292;2024-03-29T13:00:27;0.30;;;0.30;;
77822;SDS011;67013;49.730;17.292;2024-03-29T13:02:56;0.20;;;0.20;;
77822;SDS011;67013;49.730;17.292;2024-03-29T13:05:25;0.20;;;0.20;;
77822;SDS011;67013;49.730;17.292;2024-03-29T13:07:58;0.30;;;0.30;;
77822;SDS011;67013;49.730;17.292;2024-03-29T13:10:28;0.30;;;0.30;;
77822;SDS011;67013;49.730;17.292;2024-03-29T13:12:57;0.30;;;0.30;;
77822;SDS011;67013;49.730;17.292;2024-03-29T13:15:26;0.30;;;0.30;;
77822;SDS011;67013;49.730;17.292;2024-03-29T13:17:56;0.30;;;0.30;;
77822;SDS011;67013;49.730;17.292;2024-03-29T13:20:26;0.20;;;0.20;;
77822;SDS011;67013;49.730;17.292;2024-03-29T13:22:55;0.20;;;0.20;;
77822;SDS011;67013;49.730;17.292;2024-03-29T13:25:24;0.30;;;0.30;;
77822;SDS011;67013;49.730;17.292;2024-03-29T13:27:54;0.20;;;0.20;;
77822;SDS011;67013;49.730;17.292;2024-03-29T13:30:24;0.40;;;0.40;;
77822;SDS011;67013;49.730;17.292;2024-03-29T13:32:54;0.30;;;0.30;;
77822;SDS011;67013;49.730;17.292;2024-03-29T13:35:23;0.20;;;0.20;;
77822;SDS011;67013;49.730;17.292;2024-03-29T13:37:53;0.20;;;0.20;;
77822;SDS011;67013;49.730;17.292;2024-03-29T13:40:22;0.30;;;0.30;;
77822;SDS011;67013;49.730;17.292;2024-03-29T13:42:51;0.30;;;0.30;;
77822;SDS011;67013;49.730;17.292;2024-03-29T13:45:21;0.40;;;0.40;;
77822;SDS011;67013;49.730;17.292;2024-03-29T13:47:52;0.30;;;0.30;;
77822;SDS011;67013;49.730;17.292;2024-03-29T13:50:21;0.40;;;0.40;;
77822;SDS011;67013;49.730;17.292;2024-03-29T13:52:50;0.30;;;0.30;;
77822;SDS011;67013;49.730;17.292;2024-03-29T13:55:30;0.40;;;0.40;;
77822;SDS011;67013;49.730;17.292;2024-03-29T13:57:59;0.30;;;0.30;;
77822;SDS011;67013;49.730;17.292;2024-03-29T14:00:29;0.20;;;0.20;;
77822;SDS011;67013;49.730;17.292;2024-03-29T14:02:58;0.30;;;0.30;;
77822;SDS011;67013;49.730;17.292;2024-03-29T14:05:28;0.40;;;0.40;;
77822;SDS011;67013;49.730;17.292;2024-03-29T14:07:58;0.40;;;0.40;;
77822;SDS011;67013;49.730;17.292;2024-03-29T14:10:29;0.30;;;0.30;;
77822;SDS011;67013;49.730;17.292;2024-03-29T14:13:02;0.20;;;0.20;;
77822;SDS011;67013;49.730;17.292;2024-03-29T14:15:32;0.20;;;0.20;;
77822;SDS011;67013;49.730;17.292;2024-03-29T14:18:02;0.50;;;0.40;;
77822;SDS011;67013;49.730;17.292;2024-03-29T14:20:32;0.20;;;0.20;;
77822;SDS011;67013;49.730;17.292;2024-03-29T14:23:01;0.20;;;0.20;;
77822;SDS011;67013;49.730;17.292;2024-03-29T14:28:01;0.30;;;0.30;;
77822;SDS011;67013;49.730;17.292;2024-03-29T14:30:31;0.30;;;0.30;;
77822;SDS011;67013;49.730;17.292;2024-03-29T14:33:00;0.30;;;0.30;;
77822;SDS011;67013;49.730;17.292;2024-03-29T14:35:32;0.30;;;0.30;;
77822;SDS011;67013;49.730;17.292;2024-03-29T14:38:02;0.30;;;0.30;;
77822;SDS011;67013;49.730;17.292;2024-03-29T14:40:32;0.20;;;0.20;;
77822;SDS011;67013;49.730;17.292;2024-03-29T14:43:01;0.40;;;0.40;;
77822;SDS011;67013;49.730;17.292;2024-03-29T14:45:32;0.40;;;0.40;;
77822;SDS011;67013;49.730;17.292;2024-03-29T14:48:02;0.40;;;0.40;;
77822;SDS011;67013;49.730;17.292;2024-03-29T14:50:32;0.30;;;0.30;;
77822;SDS011;67013;49.730;17.292;2024-03-29T14:53:01;0.20;;;0.20;;
77822;SDS011;67013;49.730;17.292;2024-03-29T14:55:30;0.30;;;0.30;;